sensor_id;sensor_type;location;lat;lon;timestamp;temperature;humidity
9965;DHT22;5023;53.554;9.964;2023-02-13T00:02:34;8.10;99.90
9965;DHT22;5023;53.554;9.964;2023-02-13T00:07:39;8.00;99.90
9965;DHT22;5023;53.554;9.964;2023-02-13T00:12:42;8.00;99.90
9965;DHT22;5023;53.554;9.964;2023-02-13T00:17:44;8.10;99.90
9965;DHT22;5023;53.554;9.964;2023-02-13T00:22:48;8.00;99.90
9965;DHT22;5023;53.554;9.964;2023-02-13T00:27:52;8.00;99.90
9965;DHT22;5023;53.554;9.964;2023-02-13T00:32:55;8.00;99.90
9965;DHT22;5023;53.554;9.964;2023-02-13T00:37:58;8.00;99.90
9965;DHT22;5023;53.554;9.964;2023-02-13T00:43:00;8.00;99.90
9965;DHT22;5023;53.554;9.964;2023-02-13T00:48:02;8.00;99.90
9965;DHT22;5023;53.554;9.964;2023-02-13T00:53:05;7.90;99.90
9965;DHT22;5023;53.554;9.964;2023-02-13T00:58:07;8.00;99.90
9965;DHT22;5023;53.554;9.964;2023-02-13T01:03:09;7.90;99.90
9965;DHT22;5023;53.554;9.964;2023-02-13T01:08:13;7.90;99.90
9965;DHT22;5023;53.554;9.964;2023-02-13T01:13:16;7.90;99.90
9965;DHT22;5023;53.554;9.964;2023-02-13T01:18:19;7.90;99.90
9965;DHT22;5023;53.554;9.964;2023-02-13T01:23:23;7.90;99.90
9965;DHT22;5023;53.554;9.964;2023-02-13T01:28:25;7.90;99.90
9965;DHT22;5023;53.554;9.964;2023-02-13T01:33:28;7.90;99.90
9965;DHT22;5023;53.554;9.964;2023-02-13T01:38:32;7.90;99.90
9965;DHT22;5023;53.554;9.964;2023-02-13T01:43:45;7.90;99.90
9965;DHT22;5023;53.554;9.964;2023-02-13T01:48:48;7.90;99.90
9965;DHT22;5023;53.554;9.964;2023-02-13T01:53:56;7.90;99.90
9965;DHT22;5023;53.554;9.964;2023-02-13T01:59:03;7.80;99.90
9965;DHT22;5023;53.554;9.964;2023-02-13T02:04:09;7.80;99.90
9965;DHT22;5023;53.554;9.964;2023-02-13T02:09:20;7.80;99.90
9965;DHT22;5023;53.554;9.964;2023-02-13T02:14:23;7.70;99.90
9965;DHT22;5023;53.554;9.964;2023-02-13T02:19:36;7.70;99.90
9965;DHT22;5023;53.554;9.964;2023-02-13T02:36:21;7.60;99.90
9965;DHT22;5023;53.554;9.964;2023-02-13T02:41:29;7.70;99.90
9965;DHT22;5023;53.554;9.964;2023-02-13T02:46:56;7.60;99.90
9965;DHT22;5023;53.554;9.964;2023-02-13T02:52:20;7.70;99.90
9965;DHT22;5023;53.554;9.964;2023-02-13T02:57:29;7.70;99.90
9965;DHT22;5023;53.554;9.964;2023-02-13T03:02:52;7.60;99.90
9965;DHT22;5023;53.554;9.964;2023-02-13T03:08:14;7.60;99.90
9965;DHT22;5023;53.554;9.964;2023-02-13T03:13:41;7.60;99.90
9965;DHT22;5023;53.554;9.964;2023-02-13T03:18:46;7.60;99.90
9965;DHT22;5023;53.554;9.964;2023-02-13T03:24:19;7.60;99.90
9965;DHT22;5023;53.554;9.964;2023-02-13T03:29:35;7.60;99.90
9965;DHT22;5023;53.554;9.964;2023-02-13T03:35:07;7.50;99.90
9965;DHT22;5023;53.554;9.964;2023-02-13T03:40:39;7.50;99.90
9965;DHT22;5023;53.554;9.964;2023-02-13T03:46:06;7.50;99.90
9965;DHT22;5023;53.554;9.964;2023-02-13T03:51:09;7.50;99.90
9965;DHT22;5023;53.554;9.964;2023-02-13T03:56:15;7.50;99.90
9965;DHT22;5023;53.554;9.964;2023-02-13T04:01:38;7.50;99.90
9965;DHT22;5023;53.554;9.964;2023-02-13T04:06:46;7.50;99.90
9965;DHT22;5023;53.554;9.964;2023-02-13T04:11:57;7.50;99.90
9965;DHT22;5023;53.554;9.964;2023-02-13T04:17:04;7.50;99.90
9965;DHT22;5023;53.554;9.964;2023-02-13T04:22:07;7.50;99.90
9965;DHT22;5023;53.554;9.964;2023-02-13T04:27:13;7.50;99.90
9965;DHT22;5023;53.554;9.964;2023-02-13T04:32:16;7.50;99.90
9965;DHT22;5023;53.554;9.964;2023-02-13T04:37:18;7.50;99.90
9965;DHT22;5023;53.554;9.964;2023-02-13T04:42:22;7.50;99.90
9965;DHT22;5023;53.554;9.964;2023-02-13T04:47:24;7.50;99.90
9965;DHT22;5023;53.554;9.964;2023-02-13T04:52:26;7.50;99.90
9965;DHT22;5023;53.554;9.964;2023-02-13T04:57:29;7.60;99.90
9965;DHT22;5023;53.554;9.964;2023-02-13T05:02:32;7.60;99.90
9965;DHT22;5023;53.554;9.964;2023-02-13T05:07:34;7.50;99.90
9965;DHT22;5023;53.554;9.964;2023-02-13T05:12:37;7.40;99.90
9965;DHT22;5023;53.554;9.964;2023-02-13T05:17:42;7.50;99.90
9965;DHT22;5023;53.554;9.964;2023-02-13T05:22:45;7.50;99.90
9965;DHT22;5023;53.554;9.964;2023-02-13T05:28:06;7.60;99.90
9965;DHT22;5023;53.554;9.964;2023-02-13T05:33:29;7.60;99.90
9965;DHT22;5023;53.554;9.964;2023-02-13T05:38:31;7.60;99.90
9965;DHT22;5023;53.554;9.964;2023-02-13T05:43:34;7.50;99.90
9965;DHT22;5023;53.554;9.964;2023-02-13T05:48:39;7.40;99.90
9965;DHT22;5023;53.554;9.964;2023-02-13T05:53:43;7.40;99.90
9965;DHT22;5023;53.554;9.964;2023-02-13T05:58:47;7.40;99.90
9965;DHT22;5023;53.554;9.964;2023-02-13T06:03:51;7.40;99.90
9965;DHT22;5023;53.554;9.964;2023-02-13T06:08:53;7.40;99.90
9965;DHT22;5023;53.554;9.964;2023-02-13T06:13:57;7.50;99.90
9965;DHT22;5023;53.554;9.964;2023-02-13T06:18:59;7.50;99.90
9965;DHT22;5023;53.554;9.964;2023-02-13T06:24:01;7.60;99.90
9965;DHT22;5023;53.554;9.964;2023-02-13T06:29:05;7.60;99.90
9965;DHT22;5023;53.554;9.964;2023-02-13T06:34:08;7.60;99.90
9965;DHT22;5023;53.554;9.964;2023-02-13T06:39:11;7.60;99.90
9965;DHT22;5023;53.554;9.964;2023-02-13T06:44:17;7.60;99.90
9965;DHT22;5023;53.554;9.964;2023-02-13T06:49:19;7.60;99.90
9965;DHT22;5023;53.554;9.964;2023-02-13T06:54:21;7.50;99.90
9965;DHT22;5023;53.554;9.964;2023-02-13T06:59:24;7.50;99.90
9965;DHT22;5023;53.554;9.964;2023-02-13T07:04:27;7.50;99.90
9965;DHT22;5023;53.554;9.964;2023-02-13T07:09:30;7.50;99.90
9965;DHT22;5023;53.554;9.964;2023-02-13T07:20:33;7.50;99.90
9965;DHT22;5023;53.554;9.964;2023-02-13T07:25:35;7.50;99.90
9965;DHT22;5023;53.554;9.964;2023-02-13T07:30:40;7.50;99.90
9965;DHT22;5023;53.554;9.964;2023-02-13T07:35:47;7.50;99.90
9965;DHT22;5023;53.554;9.964;2023-02-13T07:40:51;7.50;99.90
9965;DHT22;5023;53.554;9.964;2023-02-13T07:45:53;7.50;99.90
9965;DHT22;5023;53.554;9.964;2023-02-13T07:51:01;7.50;99.90
9965;DHT22;5023;53.554;9.964;2023-02-13T07:56:07;7.50;99.90
9965;DHT22;5023;53.554;9.964;2023-02-13T08:01:11;7.60;99.90
9965;DHT22;5023;53.554;9.964;2023-02-13T08:06:15;7.60;99.90
9965;DHT22;5023;53.554;9.964;2023-02-13T08:11:23;7.50;99.90
9965;DHT22;5023;53.554;9.964;2023-02-13T08:16:45;7.50;99.90
9965;DHT22;5023;53.554;9.964;2023-02-13T08:21:48;7.60;99.90
9965;DHT22;5023;53.554;9.964;2023-02-13T08:26:50;7.60;99.90
9965;DHT22;5023;53.554;9.964;2023-02-13T08:31:52;7.60;99.90
9965;DHT22;5023;53.554;9.964;2023-02-13T08:36:56;7.60;99.90
9965;DHT22;5023;53.554;9.964;2023-02-13T08:41:58;7.60;99.90
9965;DHT22;5023;53.554;9.964;2023-02-13T08:47:03;7.60;99.90
9965;DHT22;5023;53.554;9.964;2023-02-13T08:52:08;7.60;99.90
9965;DHT22;5023;53.554;9.964;2023-02-13T08:57:11;7.60;99.90
9965;DHT22;5023;53.554;9.964;2023-02-13T09:02:14;7.60;99.90
9965;DHT22;5023;53.554;9.964;2023-02-13T09:07:17;7.90;99.90
9965;DHT22;5023;53.554;9.964;2023-02-13T09:12:19;8.30;99.90
9965;DHT22;5023;53.554;9.964;2023-02-13T09:17:21;8.30;99.90
9965;DHT22;5023;53.554;9.964;2023-02-13T09:22:25;8.40;99.90
9965;DHT22;5023;53.554;9.964;2023-02-13T09:27:27;8.20;99.90
9965;DHT22;5023;53.554;9.964;2023-02-13T09:32:29;8.00;99.90
9965;DHT22;5023;53.554;9.964;2023-02-13T09:37:33;7.90;99.90
9965;DHT22;5023;53.554;9.964;2023-02-13T09:42:35;8.00;99.90
9965;DHT22;5023;53.554;9.964;2023-02-13T09:47:40;8.50;99.90
9965;DHT22;5023;53.554;9.964;2023-02-13T09:52:45;8.70;99.90
9965;DHT22;5023;53.554;9.964;2023-02-13T09:57:56;8.90;99.90
9965;DHT22;5023;53.554;9.964;2023-02-13T10:03:15;8.70;99.90
9965;DHT22;5023;53.554;9.964;2023-02-13T10:08:30;8.80;99.90
9965;DHT22;5023;53.554;9.964;2023-02-13T10:13:47;9.00;99.90
9965;DHT22;5023;53.554;9.964;2023-02-13T10:18:54;9.10;99.90
9965;DHT22;5023;53.554;9.964;2023-02-13T10:24:00;9.10;99.90
9965;DHT22;5023;53.554;9.964;2023-02-13T10:29:10;8.90;99.90
9965;DHT22;5023;53.554;9.964;2023-02-13T10:34:36;8.90;99.90
9965;DHT22;5023;53.554;9.964;2023-02-13T10:39:48;8.60;99.90
9965;DHT22;5023;53.554;9.964;2023-02-13T10:45:05;8.50;99.90
9965;DHT22;5023;53.554;9.964;2023-02-13T10:50:18;8.20;99.90
9965;DHT22;5023;53.554;9.964;2023-02-13T10:55:38;8.10;99.90
9965;DHT22;5023;53.554;9.964;2023-02-13T11:00:48;8.20;99.90
9965;DHT22;5023;53.554;9.964;2023-02-13T11:05:56;8.30;99.90
9965;DHT22;5023;53.554;9.964;2023-02-13T11:11:00;8.40;99.90
9965;DHT22;5023;53.554;9.964;2023-02-13T11:16:04;8.50;99.90
9965;DHT22;5023;53.554;9.964;2023-02-13T11:21:15;8.50;99.90
9965;DHT22;5023;53.554;9.964;2023-02-13T11:26:30;8.40;99.90
9965;DHT22;5023;53.554;9.964;2023-02-13T11:31:35;8.30;99.90
9965;DHT22;5023;53.554;9.964;2023-02-13T11:36:38;8.30;99.90
9965;DHT22;5023;53.554;9.964;2023-02-13T11:41:44;8.40;99.90
9965;DHT22;5023;53.554;9.964;2023-02-13T11:46:48;8.20;99.90
9965;DHT22;5023;53.554;9.964;2023-02-13T11:51:52;8.20;99.90
9965;DHT22;5023;53.554;9.964;2023-02-13T11:56:57;8.30;99.90
9965;DHT22;5023;53.554;9.964;2023-02-13T12:02:13;8.40;99.90
9965;DHT22;5023;53.554;9.964;2023-02-13T12:07:22;8.40;99.90
9965;DHT22;5023;53.554;9.964;2023-02-13T12:12:31;8.40;99.90
9965;DHT22;5023;53.554;9.964;2023-02-13T12:17:35;8.40;99.90
9965;DHT22;5023;53.554;9.964;2023-02-13T12:22:47;8.50;99.90
9965;DHT22;5023;53.554;9.964;2023-02-13T12:28:12;8.50;99.90
9965;DHT22;5023;53.554;9.964;2023-02-13T12:33:24;8.50;99.90
9965;DHT22;5023;53.554;9.964;2023-02-13T12:38:44;8.40;99.90
9965;DHT22;5023;53.554;9.964;2023-02-13T12:44:18;8.30;99.90
9965;DHT22;5023;53.554;9.964;2023-02-13T12:55:09;8.50;99.90
9965;DHT22;5023;53.554;9.964;2023-02-13T13:00:27;8.50;99.90
9965;DHT22;5023;53.554;9.964;2023-02-13T13:05:43;8.50;99.90
9965;DHT22;5023;53.554;9.964;2023-02-13T13:10:59;8.50;99.90
9965;DHT22;5023;53.554;9.964;2023-02-13T13:16:11;8.50;99.90
9965;DHT22;5023;53.554;9.964;2023-02-13T13:21:27;8.60;99.90
9965;DHT22;5023;53.554;9.964;2023-02-13T13:26:34;8.50;99.90
9965;DHT22;5023;53.554;9.964;2023-02-13T13:31:39;8.50;99.90
9965;DHT22;5023;53.554;9.964;2023-02-13T13:36:45;8.60;99.90
9965;DHT22;5023;53.554;9.964;2023-02-13T13:41:55;8.60;99.90
9965;DHT22;5023;53.554;9.964;2023-02-13T13:47:11;8.70;99.90
9965;DHT22;5023;53.554;9.964;2023-02-13T13:52:24;8.60;99.90
9965;DHT22;5023;53.554;9.964;2023-02-13T13:57:27;8.50;99.90
9965;DHT22;5023;53.554;9.964;2023-02-13T14:03:21;8.50;99.90
9965;DHT22;5023;53.554;9.964;2023-02-13T14:19:51;8.60;99.90
9965;DHT22;5023;53.554;9.964;2023-02-13T14:24:55;8.50;99.90
9965;DHT22;5023;53.554;9.964;2023-02-13T14:29:59;8.70;99.90
9965;DHT22;5023;53.554;9.964;2023-02-13T14:35:13;8.80;99.90
9965;DHT22;5023;53.554;9.964;2023-02-13T14:45:56;8.60;99.90
9965;DHT22;5023;53.554;9.964;2023-02-13T14:51:01;8.70;99.90
9965;DHT22;5023;53.554;9.964;2023-02-13T14:56:06;8.80;99.90
9965;DHT22;5023;53.554;9.964;2023-02-13T15:01:22;8.60;99.90
9965;DHT22;5023;53.554;9.964;2023-02-13T15:06:29;8.40;99.90
9965;DHT22;5023;53.554;9.964;2023-02-13T15:11:40;8.30;99.90
9965;DHT22;5023;53.554;9.964;2023-02-13T15:16:44;8.40;99.90
9965;DHT22;5023;53.554;9.964;2023-02-13T15:21:54;8.40;99.90
9965;DHT22;5023;53.554;9.964;2023-02-13T15:27:02;8.40;99.90
9965;DHT22;5023;53.554;9.964;2023-02-13T15:32:23;8.40;99.90
9965;DHT22;5023;53.554;9.964;2023-02-13T15:37:31;8.30;99.90
9965;DHT22;5023;53.554;9.964;2023-02-13T15:42:34;8.30;99.90
9965;DHT22;5023;53.554;9.964;2023-02-13T15:47:39;8.40;99.90
9965;DHT22;5023;53.554;9.964;2023-02-13T15:52:43;8.30;99.90
9965;DHT22;5023;53.554;9.964;2023-02-13T15:57:46;8.20;99.90
9965;DHT22;5023;53.554;9.964;2023-02-13T16:02:48;8.20;99.90
9965;DHT22;5023;53.554;9.964;2023-02-13T16:07:54;8.30;99.90
9965;DHT22;5023;53.554;9.964;2023-02-13T16:12:58;8.20;99.90
9965;DHT22;5023;53.554;9.964;2023-02-13T16:18:02;8.20;99.90
9965;DHT22;5023;53.554;9.964;2023-02-13T16:23:16;8.20;99.90
9965;DHT22;5023;53.554;9.964;2023-02-13T16:28:22;8.40;99.90
9965;DHT22;5023;53.554;9.964;2023-02-13T16:33:27;8.40;99.90
9965;DHT22;5023;53.554;9.964;2023-02-13T16:38:35;8.50;99.90
9965;DHT22;5023;53.554;9.964;2023-02-13T16:43:43;8.40;99.90
9965;DHT22;5023;53.554;9.964;2023-02-13T16:48:56;8.10;99.90
9965;DHT22;5023;53.554;9.964;2023-02-13T16:54:02;8.00;99.90
9965;DHT22;5023;53.554;9.964;2023-02-13T16:59:13;7.90;99.90
9965;DHT22;5023;53.554;9.964;2023-02-13T17:04:21;8.00;99.90
9965;DHT22;5023;53.554;9.964;2023-02-13T17:09:24;8.00;99.90
9965;DHT22;5023;53.554;9.964;2023-02-13T17:14:26;7.90;99.90
9965;DHT22;5023;53.554;9.964;2023-02-13T17:19:29;7.90;99.90
9965;DHT22;5023;53.554;9.964;2023-02-13T17:24:32;7.80;99.90
9965;DHT22;5023;53.554;9.964;2023-02-13T17:29:34;7.70;99.90
9965;DHT22;5023;53.554;9.964;2023-02-13T17:34:39;7.60;99.90
9965;DHT22;5023;53.554;9.964;2023-02-13T17:39:43;7.70;99.90
9965;DHT22;5023;53.554;9.964;2023-02-13T17:44:45;7.70;99.90
9965;DHT22;5023;53.554;9.964;2023-02-13T17:49:51;7.60;99.90
9965;DHT22;5023;53.554;9.964;2023-02-13T17:54:54;7.60;99.90
9965;DHT22;5023;53.554;9.964;2023-02-13T17:59:56;7.50;99.90
9965;DHT22;5023;53.554;9.964;2023-02-13T18:05:03;7.50;99.90
9965;DHT22;5023;53.554;9.964;2023-02-13T18:10:12;7.40;99.90
9965;DHT22;5023;53.554;9.964;2023-02-13T18:15:14;7.40;99.90
9965;DHT22;5023;53.554;9.964;2023-02-13T18:20:19;7.40;99.90
9965;DHT22;5023;53.554;9.964;2023-02-13T18:25:22;7.40;99.90
9965;DHT22;5023;53.554;9.964;2023-02-13T18:30:25;7.50;99.90
9965;DHT22;5023;53.554;9.964;2023-02-13T18:35:27;7.50;99.90
9965;DHT22;5023;53.554;9.964;2023-02-13T18:40:30;7.50;99.90
9965;DHT22;5023;53.554;9.964;2023-02-13T18:45:34;7.50;99.90
9965;DHT22;5023;53.554;9.964;2023-02-13T18:50:38;7.60;99.90
9965;DHT22;5023;53.554;9.964;2023-02-13T18:55:42;7.50;99.90
9965;DHT22;5023;53.554;9.964;2023-02-13T19:00:44;7.40;99.90
9965;DHT22;5023;53.554;9.964;2023-02-13T19:05:46;7.40;99.90
9965;DHT22;5023;53.554;9.964;2023-02-13T19:10:49;7.50;99.90
9965;DHT22;5023;53.554;9.964;2023-02-13T19:15:51;7.40;99.90
9965;DHT22;5023;53.554;9.964;2023-02-13T19:20:58;7.40;99.90
9965;DHT22;5023;53.554;9.964;2023-02-13T19:26:05;7.40;99.90
9965;DHT22;5023;53.554;9.964;2023-02-13T19:31:10;7.40;99.90
9965;DHT22;5023;53.554;9.964;2023-02-13T19:36:14;7.50;99.90
9965;DHT22;5023;53.554;9.964;2023-02-13T19:41:18;7.40;99.90
9965;DHT22;5023;53.554;9.964;2023-02-13T19:46:21;7.50;99.90
9965;DHT22;5023;53.554;9.964;2023-02-13T19:51:26;7.50;99.90
9965;DHT22;5023;53.554;9.964;2023-02-13T19:56:30;7.50;99.90
9965;DHT22;5023;53.554;9.964;2023-02-13T20:01:33;7.50;99.90
9965;DHT22;5023;53.554;9.964;2023-02-13T20:06:36;7.50;99.90
9965;DHT22;5023;53.554;9.964;2023-02-13T20:11:40;7.50;99.90
9965;DHT22;5023;53.554;9.964;2023-02-13T20:16:43;7.50;99.90
9965;DHT22;5023;53.554;9.964;2023-02-13T20:21:54;7.40;99.90
9965;DHT22;5023;53.554;9.964;2023-02-13T20:26:59;7.50;99.90
9965;DHT22;5023;53.554;9.964;2023-02-13T20:32:01;7.50;99.90
9965;DHT22;5023;53.554;9.964;2023-02-13T20:37:02;7.50;99.90
9965;DHT22;5023;53.554;9.964;2023-02-13T20:42:06;7.40;99.90
9965;DHT22;5023;53.554;9.964;2023-02-13T20:47:11;7.40;99.90
9965;DHT22;5023;53.554;9.964;2023-02-13T20:52:13;7.40;99.90
9965;DHT22;5023;53.554;9.964;2023-02-13T20:57:16;7.40;99.90
9965;DHT22;5023;53.554;9.964;2023-02-13T21:02:18;7.40;99.90
9965;DHT22;5023;53.554;9.964;2023-02-13T21:07:20;7.30;99.90
9965;DHT22;5023;53.554;9.964;2023-02-13T21:12:24;7.30;99.90
9965;DHT22;5023;53.554;9.964;2023-02-13T21:17:26;7.30;99.90
9965;DHT22;5023;53.554;9.964;2023-02-13T21:22:29;7.20;99.90
9965;DHT22;5023;53.554;9.964;2023-02-13T21:27:32;7.30;99.90
9965;DHT22;5023;53.554;9.964;2023-02-13T21:32:35;7.30;99.90
9965;DHT22;5023;53.554;9.964;2023-02-13T21:37:39;7.30;99.90
9965;DHT22;5023;53.554;9.964;2023-02-13T21:42:42;7.30;99.90
9965;DHT22;5023;53.554;9.964;2023-02-13T21:47:44;7.30;99.90
9965;DHT22;5023;53.554;9.964;2023-02-13T21:52:46;7.40;99.90
9965;DHT22;5023;53.554;9.964;2023-02-13T21:57:50;7.40;99.90
9965;DHT22;5023;53.554;9.964;2023-02-13T22:02:53;7.40;99.90
9965;DHT22;5023;53.554;9.964;2023-02-13T22:07:55;7.40;99.90
9965;DHT22;5023;53.554;9.964;2023-02-13T22:13:17;7.30;99.90
9965;DHT22;5023;53.554;9.964;2023-02-13T22:18:19;7.20;99.90
9965;DHT22;5023;53.554;9.964;2023-02-13T22:23:24;7.20;99.90
9965;DHT22;5023;53.554;9.964;2023-02-13T22:28:31;7.10;99.90
9965;DHT22;5023;53.554;9.964;2023-02-13T22:33:33;7.10;99.90
9965;DHT22;5023;53.554;9.964;2023-02-13T22:38:39;7.10;99.90
9965;DHT22;5023;53.554;9.964;2023-02-13T22:43:43;7.10;99.90
9965;DHT22;5023;53.554;9.964;2023-02-13T22:48:46;7.00;99.90
9965;DHT22;5023;53.554;9.964;2023-02-13T22:53:51;7.10;99.90
9965;DHT22;5023;53.554;9.964;2023-02-13T22:58:55;7.10;99.90
9965;DHT22;5023;53.554;9.964;2023-02-13T23:03:58;7.00;99.90
9965;DHT22;5023;53.554;9.964;2023-02-13T23:09:01;7.00;99.90
9965;DHT22;5023;53.554;9.964;2023-02-13T23:14:06;7.00;99.90
9965;DHT22;5023;53.554;9.964;2023-02-13T23:19:09;7.00;99.90
9965;DHT22;5023;53.554;9.964;2023-02-13T23:24:11;6.90;99.90
9965;DHT22;5023;53.554;9.964;2023-02-13T23:29:15;6.90;99.90
9965;DHT22;5023;53.554;9.964;2023-02-13T23:34:17;6.90;99.90
9965;DHT22;5023;53.554;9.964;2023-02-13T23:39:20;6.80;99.90
9965;DHT22;5023;53.554;9.964;2023-02-13T23:44:25;6.90;99.90
9965;DHT22;5023;53.554;9.964;2023-02-13T23:49:27;6.90;99.90
9965;DHT22;5023;53.554;9.964;2023-02-13T23:54:30;6.80;99.90
9965;DHT22;5023;53.554;9.964;2023-02-13T23:59:33;6.80;99.90
